sensor_id;sensor_type;location;lat;lon;timestamp;pressure;altitude;pressure_sealevel;temperature;humidity
10718;BME280;13513;42.700;23.124;2023-03-04T00:01:06;92930.02;;;6.17;100.00
10718;BME280;13513;42.700;23.124;2023-03-04T00:03:37;92932.88;;;6.25;100.00
10718;BME280;13513;42.700;23.124;2023-03-04T00:06:07;92932.88;;;6.25;100.00
10718;BME280;13513;42.700;23.124;2023-03-04T00:08:38;92931.25;;;6.24;100.00
10718;BME280;13513;42.700;23.124;2023-03-04T00:11:09;92921.22;;;6.21;100.00
10718;BME280;13513;42.700;23.124;2023-03-04T00:13:40;92921.22;;;6.21;100.00
10718;BME280;13513;42.700;23.124;2023-03-04T00:16:10;92919.75;;;6.16;100.00
10718;BME280;13513;42.700;23.124;2023-03-04T00:18:41;92912.70;;;6.07;100.00
10718;BME280;13513;42.700;23.124;2023-03-04T00:21:11;92914.30;;;6.08;100.00
10718;BME280;13513;42.700;23.124;2023-03-04T00:23:42;92914.30;;;6.08;100.00
10718;BME280;13513;42.700;23.124;2023-03-04T00:26:15;92915.09;;;6.00;100.00
10718;BME280;13513;42.700;23.124;2023-03-04T00:28:45;92912.63;;;5.87;100.00
10718;BME280;13513;42.700;23.124;2023-03-04T00:31:15;92920.72;;;5.70;100.00
10718;BME280;13513;42.700;23.124;2023-03-04T00:33:46;92914.45;;;5.53;100.00
10718;BME280;13513;42.700;23.124;2023-03-04T00:36:17;92914.45;;;5.53;100.00
10718;BME280;13513;42.700;23.124;2023-03-04T00:38:48;92903.72;;;5.45;100.00
10718;BME280;13513;42.700;23.124;2023-03-04T00:41:18;92901.16;;;5.39;100.00
10718;BME280;13513;42.700;23.124;2023-03-04T00:43:52;92908.80;;;5.31;100.00
10718;BME280;13513;42.700;23.124;2023-03-04T00:46:25;92911.07;;;5.37;100.00
10718;BME280;13513;42.700;23.124;2023-03-04T00:48:59;92908.38;;;5.43;100.00
10718;BME280;13513;42.700;23.124;2023-03-04T00:51:30;92909.27;;;5.46;100.00
10718;BME280;13513;42.700;23.124;2023-03-04T00:54:01;92901.48;;;5.49;100.00
10718;BME280;13513;42.700;23.124;2023-03-04T00:56:31;92891.14;;;5.63;100.00
10718;BME280;13513;42.700;23.124;2023-03-04T00:59:02;92891.14;;;5.63;100.00
10718;BME280;13513;42.700;23.124;2023-03-04T01:01:32;92890.79;;;5.68;100.00
10718;BME280;13513;42.700;23.124;2023-03-04T01:04:04;92896.13;;;5.80;100.00
10718;BME280;13513;42.700;23.124;2023-03-04T01:06:34;92884.33;;;5.80;100.00
10718;BME280;13513;42.700;23.124;2023-03-04T01:09:05;92888.27;;;5.71;100.00
10718;BME280;13513;42.700;23.124;2023-03-04T01:11:36;92887.19;;;5.87;100.00
10718;BME280;13513;42.700;23.124;2023-03-04T01:14:07;92889.61;;;5.98;100.00
10718;BME280;13513;42.700;23.124;2023-03-04T01:16:40;92887.94;;;6.03;100.00
10718;BME280;13513;42.700;23.124;2023-03-04T01:19:14;92892.14;;;6.13;100.00
10718;BME280;13513;42.700;23.124;2023-03-04T01:21:44;92892.14;;;6.13;100.00
10718;BME280;13513;42.700;23.124;2023-03-04T01:24:15;92888.03;;;6.26;100.00
10718;BME280;13513;42.700;23.124;2023-03-04T01:26:46;92889.34;;;6.26;100.00
10718;BME280;13513;42.700;23.124;2023-03-04T01:29:17;92883.56;;;5.97;100.00
10718;BME280;13513;42.700;23.124;2023-03-04T01:31:48;92881.16;;;5.87;100.00
10718;BME280;13513;42.700;23.124;2023-03-04T01:34:19;92883.41;;;5.83;100.00
10718;BME280;13513;42.700;23.124;2023-03-04T01:36:50;92884.09;;;5.54;100.00
10718;BME280;13513;42.700;23.124;2023-03-04T01:39:20;92882.19;;;5.52;100.00
10718;BME280;13513;42.700;23.124;2023-03-04T01:41:51;92887.28;;;5.38;100.00
10718;BME280;13513;42.700;23.124;2023-03-04T01:44:22;92884.73;;;5.07;100.00
10718;BME280;13513;42.700;23.124;2023-03-04T01:46:54;92879.59;;;4.94;100.00
10718;BME280;13513;42.700;23.124;2023-03-04T01:49:25;92872.01;;;5.11;100.00
10718;BME280;13513;42.700;23.124;2023-03-04T01:51:57;92875.09;;;5.17;100.00
10718;BME280;13513;42.700;23.124;2023-03-04T01:54:26;92867.09;;;5.21;100.00
10718;BME280;13513;42.700;23.124;2023-03-04T01:56:58;92873.78;;;5.17;100.00
10718;BME280;13513;42.700;23.124;2023-03-04T01:59:30;92873.66;;;5.05;100.00
10718;BME280;13513;42.700;23.124;2023-03-04T02:02:02;92877.23;;;5.02;100.00
10718;BME280;13513;42.700;23.124;2023-03-04T02:04:34;92877.44;;;5.00;100.00
10718;BME280;13513;42.700;23.124;2023-03-04T02:07:05;92875.03;;;4.99;100.00
10718;BME280;13513;42.700;23.124;2023-03-04T02:09:36;92877.80;;;5.04;100.00
10718;BME280;13513;42.700;23.124;2023-03-04T02:12:06;92871.33;;;5.06;100.00
10718;BME280;13513;42.700;23.124;2023-03-04T02:14:39;92871.33;;;5.06;100.00
10718;BME280;13513;42.700;23.124;2023-03-04T02:17:11;92865.68;;;5.18;100.00
10718;BME280;13513;42.700;23.124;2023-03-04T02:19:55;92867.91;;;5.30;100.00
10718;BME280;13513;42.700;23.124;2023-03-04T02:22:20;92870.61;;;5.42;100.00
10718;BME280;13513;42.700;23.124;2023-03-04T02:24:58;92858.92;;;5.53;100.00
10718;BME280;13513;42.700;23.124;2023-03-04T02:27:24;92860.52;;;5.63;100.00
10718;BME280;13513;42.700;23.124;2023-03-04T02:29:55;92856.44;;;5.67;100.00
10718;BME280;13513;42.700;23.124;2023-03-04T02:32:26;92849.30;;;5.74;100.00
10718;BME280;13513;42.700;23.124;2023-03-04T02:34:59;92845.01;;;5.80;100.00
10718;BME280;13513;42.700;23.124;2023-03-04T02:37:31;92852.11;;;5.88;100.00
10718;BME280;13513;42.700;23.124;2023-03-04T02:40:02;92853.85;;;5.85;100.00
10718;BME280;13513;42.700;23.124;2023-03-04T02:42:33;92853.85;;;5.85;100.00
10718;BME280;13513;42.700;23.124;2023-03-04T02:45:05;92848.23;;;5.82;100.00
10718;BME280;13513;42.700;23.124;2023-03-04T02:47:36;92849.30;;;5.74;100.00
10718;BME280;13513;42.700;23.124;2023-03-04T02:50:08;92847.62;;;5.62;100.00
10718;BME280;13513;42.700;23.124;2023-03-04T02:52:39;92841.58;;;5.52;100.00
10718;BME280;13513;42.700;23.124;2023-03-04T02:55:10;92844.55;;;5.47;100.00
10718;BME280;13513;42.700;23.124;2023-03-04T02:57:42;92843.88;;;5.33;100.00
10718;BME280;13513;42.700;23.124;2023-03-04T03:00:16;92843.88;;;5.33;100.00
10718;BME280;13513;42.700;23.124;2023-03-04T03:02:49;92851.53;;;5.26;100.00
10718;BME280;13513;42.700;23.124;2023-03-04T03:05:18;92852.77;;;5.23;100.00
10718;BME280;13513;42.700;23.124;2023-03-04T03:07:51;92848.45;;;5.20;100.00
10718;BME280;13513;42.700;23.124;2023-03-04T03:10:24;92845.08;;;5.04;100.00
10718;BME280;13513;42.700;23.124;2023-03-04T03:12:57;92842.99;;;5.12;100.00
10718;BME280;13513;42.700;23.124;2023-03-04T03:15:28;92849.89;;;5.16;100.00
10718;BME280;13513;42.700;23.124;2023-03-04T03:17:59;92841.41;;;5.20;100.00
10718;BME280;13513;42.700;23.124;2023-03-04T03:20:30;92844.02;;;5.20;100.00
10718;BME280;13513;42.700;23.124;2023-03-04T03:23:01;92846.36;;;5.19;100.00
10718;BME280;13513;42.700;23.124;2023-03-04T03:25:30;92836.17;;;5.29;100.00
10718;BME280;13513;42.700;23.124;2023-03-04T03:28:03;92840.94;;;5.14;100.00
10718;BME280;13513;42.700;23.124;2023-03-04T03:30:33;92840.36;;;5.03;100.00
10718;BME280;13513;42.700;23.124;2023-03-04T03:33:04;92835.78;;;4.83;100.00
10718;BME280;13513;42.700;23.124;2023-03-04T03:35:35;92835.40;;;4.71;100.00
10718;BME280;13513;42.700;23.124;2023-03-04T03:38:06;92828.94;;;4.58;100.00
10718;BME280;13513;42.700;23.124;2023-03-04T03:40:36;92838.69;;;4.44;100.00
10718;BME280;13513;42.700;23.124;2023-03-04T03:43:06;92832.23;;;4.62;100.00
10718;BME280;13513;42.700;23.124;2023-03-04T03:45:36;92833.95;;;4.75;100.00
10718;BME280;13513;42.700;23.124;2023-03-04T03:48:08;92831.91;;;4.77;100.00
10718;BME280;13513;42.700;23.124;2023-03-04T03:50:39;92825.58;;;4.75;100.00
10718;BME280;13513;42.700;23.124;2023-03-04T03:53:10;92826.70;;;4.86;100.00
10718;BME280;13513;42.700;23.124;2023-03-04T03:55:40;92826.72;;;4.61;100.00
10718;BME280;13513;42.700;23.124;2023-03-04T03:58:11;92818.66;;;4.63;100.00
10718;BME280;13513;42.700;23.124;2023-03-04T04:00:42;92818.39;;;4.55;100.00
10718;BME280;13513;42.700;23.124;2023-03-04T04:03:16;92820.35;;;4.35;100.00
10718;BME280;13513;42.700;23.124;2023-03-04T04:05:46;92825.71;;;4.31;100.00
10718;BME280;13513;42.700;23.124;2023-03-04T04:08:17;92814.00;;;4.18;100.00
10718;BME280;13513;42.700;23.124;2023-03-04T04:10:48;92812.58;;;4.06;100.00
10718;BME280;13513;42.700;23.124;2023-03-04T04:13:18;92809.59;;;4.03;100.00
10718;BME280;13513;42.700;23.124;2023-03-04T04:15:52;92814.34;;;3.97;100.00
10718;BME280;13513;42.700;23.124;2023-03-04T04:18:24;92814.09;;;4.05;100.00
10718;BME280;13513;42.700;23.124;2023-03-04T04:20:56;92820.22;;;4.08;100.00
10718;BME280;13513;42.700;23.124;2023-03-04T04:23:26;92818.95;;;4.01;100.00
10718;BME280;13513;42.700;23.124;2023-03-04T04:25:58;92818.42;;;4.02;100.00
10718;BME280;13513;42.700;23.124;2023-03-04T04:28:27;92829.90;;;4.01;100.00
10718;BME280;13513;42.700;23.124;2023-03-04T04:31:00;92818.95;;;4.01;100.00
10718;BME280;13513;42.700;23.124;2023-03-04T04:33:32;92820.42;;;4.06;100.00
10718;BME280;13513;42.700;23.124;2023-03-04T04:36:02;92822.30;;;4.08;100.00
10718;BME280;13513;42.700;23.124;2023-03-04T04:38:33;92820.30;;;4.10;100.00
10718;BME280;13513;42.700;23.124;2023-03-04T04:41:04;92819.11;;;4.06;100.00
10718;BME280;13513;42.700;23.124;2023-03-04T04:43:35;92818.96;;;3.95;100.00
10718;BME280;13513;42.700;23.124;2023-03-04T04:46:07;92812.95;;;3.94;100.00
10718;BME280;13513;42.700;23.124;2023-03-04T04:48:39;92818.59;;;3.91;100.00
10718;BME280;13513;42.700;23.124;2023-03-04T04:51:09;92821.08;;;3.95;100.00
10718;BME280;13513;42.700;23.124;2023-03-04T04:53:42;92820.71;;;3.92;100.00
10718;BME280;13513;42.700;23.124;2023-03-04T04:56:15;92823.23;;;3.89;100.00
10718;BME280;13513;42.700;23.124;2023-03-04T04:58:47;92827.98;;;3.83;100.00
10718;BME280;13513;42.700;23.124;2023-03-04T05:01:18;92825.28;;;3.81;100.00
10718;BME280;13513;42.700;23.124;2023-03-04T05:03:49;92829.73;;;3.74;100.00
10718;BME280;13513;42.700;23.124;2023-03-04T05:06:21;92833.97;;;3.68;100.00
10718;BME280;13513;42.700;23.124;2023-03-04T05:08:51;92834.61;;;3.57;100.00
10718;BME280;13513;42.700;23.124;2023-03-04T05:11:22;92840.44;;;3.59;100.00
10718;BME280;13513;42.700;23.124;2023-03-04T05:13:53;92837.05;;;3.52;100.00
10718;BME280;13513;42.700;23.124;2023-03-04T05:16:24;92842.84;;;3.54;100.00
10718;BME280;13513;42.700;23.124;2023-03-04T05:18:57;92840.73;;;3.60;100.00
10718;BME280;13513;42.700;23.124;2023-03-04T05:21:30;92841.22;;;3.60;100.00
10718;BME280;13513;42.700;23.124;2023-03-04T05:24:01;92850.95;;;3.68;100.00
10718;BME280;13513;42.700;23.124;2023-03-04T05:26:32;92845.66;;;3.59;100.00
10718;BME280;13513;42.700;23.124;2023-03-04T05:29:03;92844.13;;;3.67;100.00
10718;BME280;13513;42.700;23.124;2023-03-04T05:31:34;92844.67;;;3.82;100.00
10718;BME280;13513;42.700;23.124;2023-03-04T05:34:04;92847.48;;;3.81;100.00
10718;BME280;13513;42.700;23.124;2023-03-04T05:36:36;92853.47;;;4.10;100.00
10718;BME280;13513;42.700;23.124;2023-03-04T05:39:07;92852.56;;;4.29;100.00
10718;BME280;13513;42.700;23.124;2023-03-04T05:41:38;92852.24;;;4.50;100.00
10718;BME280;13513;42.700;23.124;2023-03-04T05:44:09;92852.16;;;4.72;100.00
10718;BME280;13513;42.700;23.124;2023-03-04T05:46:40;92862.99;;;4.91;100.00
10718;BME280;13513;42.700;23.124;2023-03-04T05:49:11;92866.77;;;5.11;100.00
10718;BME280;13513;42.700;23.124;2023-03-04T05:51:41;92866.95;;;5.25;100.00
10718;BME280;13513;42.700;23.124;2023-03-04T05:54:12;92857.02;;;5.42;100.00
10718;BME280;13513;42.700;23.124;2023-03-04T05:56:42;92861.54;;;5.62;100.00
10718;BME280;13513;42.700;23.124;2023-03-04T05:59:13;92860.02;;;5.82;100.00
10718;BME280;13513;42.700;23.124;2023-03-04T06:01:45;92854.45;;;6.26;100.00
10718;BME280;13513;42.700;23.124;2023-03-04T06:04:16;92854.45;;;6.26;100.00
10718;BME280;13513;42.700;23.124;2023-03-04T06:06:47;92852.55;;;6.33;100.00
10718;BME280;13513;42.700;23.124;2023-03-04T06:09:19;92866.10;;;6.59;100.00
10718;BME280;13513;42.700;23.124;2023-03-04T06:11:50;92873.11;;;6.77;100.00
10718;BME280;13513;42.700;23.124;2023-03-04T06:14:21;92869.84;;;6.93;100.00
10718;BME280;13513;42.700;23.124;2023-03-04T06:16:52;92869.29;;;7.02;100.00
10718;BME280;13513;42.700;23.124;2023-03-04T06:19:23;92874.99;;;7.31;100.00
10718;BME280;13513;42.700;23.124;2023-03-04T06:21:54;92874.87;;;7.61;100.00
10718;BME280;13513;42.700;23.124;2023-03-04T06:24:24;92876.28;;;7.89;100.00
10718;BME280;13513;42.700;23.124;2023-03-04T06:26:55;92875.47;;;8.00;100.00
10718;BME280;13513;42.700;23.124;2023-03-04T06:29:25;92873.05;;;8.10;100.00
10718;BME280;13513;42.700;23.124;2023-03-04T06:31:56;92872.88;;;8.02;100.00
10718;BME280;13513;42.700;23.124;2023-03-04T06:34:26;92876.18;;;7.84;100.00
10718;BME280;13513;42.700;23.124;2023-03-04T06:36:57;92884.95;;;7.64;100.00
10718;BME280;13513;42.700;23.124;2023-03-04T06:39:28;92883.96;;;7.67;100.00
10718;BME280;13513;42.700;23.124;2023-03-04T06:41:58;92885.84;;;7.92;100.00
10718;BME280;13513;42.700;23.124;2023-03-04T06:44:28;92888.39;;;7.90;100.00
10718;BME280;13513;42.700;23.124;2023-03-04T06:46:59;92880.64;;;8.09;100.00
10718;BME280;13513;42.700;23.124;2023-03-04T06:49:30;92876.21;;;8.35;100.00
10718;BME280;13513;42.700;23.124;2023-03-04T06:52:01;92885.05;;;8.29;100.00
10718;BME280;13513;42.700;23.124;2023-03-04T06:54:32;92888.39;;;7.90;100.00
10718;BME280;13513;42.700;23.124;2023-03-04T06:57:03;92883.86;;;7.99;100.00
10718;BME280;13513;42.700;23.124;2023-03-04T06:59:34;92887.58;;;8.01;100.00
10718;BME280;13513;42.700;23.124;2023-03-04T07:02:06;92887.61;;;7.89;100.00
10718;BME280;13513;42.700;23.124;2023-03-04T07:04:37;92893.73;;;7.81;100.00
10718;BME280;13513;42.700;23.124;2023-03-04T07:07:09;92888.94;;;8.15;100.00
10718;BME280;13513;42.700;23.124;2023-03-04T07:09:40;92895.84;;;8.18;100.00
10718;BME280;13513;42.700;23.124;2023-03-04T07:12:10;92897.95;;;7.93;100.00
10718;BME280;13513;42.700;23.124;2023-03-04T07:14:41;92900.00;;;7.91;100.00
10718;BME280;13513;42.700;23.124;2023-03-04T07:17:12;92896.73;;;8.10;100.00
10718;BME280;13513;42.700;23.124;2023-03-04T07:19:42;92895.42;;;7.98;100.00
10718;BME280;13513;42.700;23.124;2023-03-04T07:22:13;92896.05;;;7.91;100.00
10718;BME280;13513;42.700;23.124;2023-03-04T07:24:44;92899.27;;;7.93;100.00
10718;BME280;13513;42.700;23.124;2023-03-04T07:27:15;92900.09;;;8.08;100.00
10718;BME280;13513;42.700;23.124;2023-03-04T07:29:44;92904.02;;;7.82;100.00
10718;BME280;13513;42.700;23.124;2023-03-04T07:32:15;92899.17;;;7.88;100.00
10718;BME280;13513;42.700;23.124;2023-03-04T07:34:46;92899.32;;;7.96;100.00
10718;BME280;13513;42.700;23.124;2023-03-04T07:37:17;92903.77;;;8.07;100.00
10718;BME280;13513;42.700;23.124;2023-03-04T07:39:47;92902.95;;;7.69;100.00
10718;BME280;13513;42.700;23.124;2023-03-04T07:42:18;92906.42;;;7.72;100.00
10718;BME280;13513;42.700;23.124;2023-03-04T07:44:50;92906.53;;;7.66;100.00
10718;BME280;13513;42.700;23.124;2023-03-04T07:47:21;92904.98;;;7.90;100.00
10718;BME280;13513;42.700;23.124;2023-03-04T07:49:51;92897.16;;;7.47;100.00
10718;BME280;13513;42.700;23.124;2023-03-04T07:52:22;92894.30;;;7.48;100.00
10718;BME280;13513;42.700;23.124;2023-03-04T07:54:53;92898.95;;;7.44;100.00
10718;BME280;13513;42.700;23.124;2023-03-04T07:57:23;92892.69;;;7.36;100.00
10718;BME280;13513;42.700;23.124;2023-03-04T07:59:54;92890.56;;;7.24;100.00
10718;BME280;13513;42.700;23.124;2023-03-04T08:02:25;92886.45;;;7.28;100.00
10718;BME280;13513;42.700;23.124;2023-03-04T08:04:55;92882.69;;;7.24;100.00
10718;BME280;13513;42.700;23.124;2023-03-04T08:07:27;92885.62;;;7.25;100.00
10718;BME280;13513;42.700;23.124;2023-03-04T08:09:58;92885.20;;;7.19;100.00
10718;BME280;13513;42.700;23.124;2023-03-04T08:12:29;92887.88;;;7.10;100.00
10718;BME280;13513;42.700;23.124;2023-03-04T08:15:02;92888.77;;;7.04;100.00
10718;BME280;13513;42.700;23.124;2023-03-04T08:17:33;92886.34;;;7.11;100.00
10718;BME280;13513;42.700;23.124;2023-03-04T08:20:03;92887.17;;;7.03;100.00
10718;BME280;13513;42.700;23.124;2023-03-04T08:22:34;92886.08;;;7.01;100.00
10718;BME280;13513;42.700;23.124;2023-03-04T08:25:06;92885.36;;;6.83;100.00
10718;BME280;13513;42.700;23.124;2023-03-04T08:27:35;92886.58;;;7.01;100.00
10718;BME280;13513;42.700;23.124;2023-03-04T08:30:07;92883.95;;;7.01;100.00
10718;BME280;13513;42.700;23.124;2023-03-04T08:32:38;92886.17;;;7.27;100.00
10718;BME280;13513;42.700;23.124;2023-03-04T08:35:10;92886.01;;;7.31;100.00
10718;BME280;13513;42.700;23.124;2023-03-04T08:37:41;92890.25;;;7.43;100.00
10718;BME280;13513;42.700;23.124;2023-03-04T08:40:14;92878.83;;;7.61;100.00
10718;BME280;13513;42.700;23.124;2023-03-04T08:42:45;92879.72;;;7.78;100.00
10718;BME280;13513;42.700;23.124;2023-03-04T08:45:16;92879.92;;;7.99;100.00
10718;BME280;13513;42.700;23.124;2023-03-04T08:47:46;92876.91;;;8.19;100.00
10718;BME280;13513;42.700;23.124;2023-03-04T08:50:16;92886.44;;;8.08;100.00
10718;BME280;13513;42.700;23.124;2023-03-04T08:52:48;92886.39;;;8.57;100.00
10718;BME280;13513;42.700;23.124;2023-03-04T08:55:19;92880.69;;;9.38;97.83
10718;BME280;13513;42.700;23.124;2023-03-04T08:57:50;92874.52;;;9.82;94.84
10718;BME280;13513;42.700;23.124;2023-03-04T09:00:20;92874.54;;;10.20;91.97
10718;BME280;13513;42.700;23.124;2023-03-04T09:02:51;92871.88;;;10.39;88.84
10718;BME280;13513;42.700;23.124;2023-03-04T09:05:22;92871.26;;;10.32;85.21
10718;BME280;13513;42.700;23.124;2023-03-04T09:07:53;92870.39;;;10.48;84.80
10718;BME280;13513;42.700;23.124;2023-03-04T09:10:24;92867.56;;;11.60;83.50
10718;BME280;13513;42.700;23.124;2023-03-04T09:12:53;92861.78;;;12.07;70.46
10718;BME280;13513;42.700;23.124;2023-03-04T09:15:23;92871.48;;;11.29;71.40
10718;BME280;13513;42.700;23.124;2023-03-04T09:17:53;92861.23;;;12.08;68.36
10718;BME280;13513;42.700;23.124;2023-03-04T09:20:24;92853.37;;;12.23;66.06
10718;BME280;13513;42.700;23.124;2023-03-04T09:22:54;92855.83;;;12.35;66.14
10718;BME280;13513;42.700;23.124;2023-03-04T09:25:25;92857.47;;;12.46;65.46
10718;BME280;13513;42.700;23.124;2023-03-04T09:27:56;92853.15;;;11.51;71.76
10718;BME280;13513;42.700;23.124;2023-03-04T09:30:27;92846.02;;;11.20;72.64
10718;BME280;13513;42.700;23.124;2023-03-04T09:32:57;92850.92;;;11.36;73.61
10718;BME280;13513;42.700;23.124;2023-03-04T09:35:28;92850.45;;;11.44;71.11
10718;BME280;13513;42.700;23.124;2023-03-04T09:37:59;92848.77;;;11.04;70.77
10718;BME280;13513;42.700;23.124;2023-03-04T09:40:38;92846.03;;;10.91;76.46
10718;BME280;13513;42.700;23.124;2023-03-04T09:43:17;92842.36;;;10.68;77.62
10718;BME280;13513;42.700;23.124;2023-03-04T09:45:46;92848.16;;;10.68;78.70
10718;BME280;13513;42.700;23.124;2023-03-04T09:48:19;92843.98;;;10.74;77.95
10718;BME280;13513;42.700;23.124;2023-03-04T09:50:55;92848.72;;;10.48;77.74
10718;BME280;13513;42.700;23.124;2023-03-04T09:53:32;92839.86;;;10.59;81.34
10718;BME280;13513;42.700;23.124;2023-03-04T09:55:57;92834.05;;;10.57;81.08
10718;BME280;13513;42.700;23.124;2023-03-04T09:58:56;92835.52;;;10.27;83.32
10718;BME280;13513;42.700;23.124;2023-03-04T10:06:39;92832.64;;;10.07;88.82
10718;BME280;13513;42.700;23.124;2023-03-04T10:09:18;92830.95;;;9.79;90.67
10718;BME280;13513;42.700;23.124;2023-03-04T10:11:53;92823.33;;;9.83;89.85
10718;BME280;13513;42.700;23.124;2023-03-04T10:17:06;92829.09;;;10.18;88.73
10718;BME280;13513;42.700;23.124;2023-03-04T10:22:41;92822.03;;;10.23;87.16
10718;BME280;13513;42.700;23.124;2023-03-04T10:25:16;92824.32;;;10.17;83.52
10718;BME280;13513;42.700;23.124;2023-03-04T10:27:53;92817.99;;;10.16;85.65
10718;BME280;13513;42.700;23.124;2023-03-04T10:30:42;92813.43;;;9.92;87.14
10718;BME280;13513;42.700;23.124;2023-03-04T10:33:13;92810.53;;;9.72;89.74
10718;BME280;13513;42.700;23.124;2023-03-04T10:35:46;92809.54;;;9.59;87.55
10718;BME280;13513;42.700;23.124;2023-03-04T10:38:17;92799.22;;;9.20;92.14
10718;BME280;13513;42.700;23.124;2023-03-04T10:40:48;92795.16;;;9.31;94.29
10718;BME280;13513;42.700;23.124;2023-03-04T10:43:20;92789.51;;;9.42;94.40
10718;BME280;13513;42.700;23.124;2023-03-04T10:45:56;92792.63;;;9.77;93.59
10718;BME280;13513;42.700;23.124;2023-03-04T10:48:29;92794.12;;;9.70;88.47
10718;BME280;13513;42.700;23.124;2023-03-04T10:51:17;92784.23;;;9.80;89.11
10718;BME280;13513;42.700;23.124;2023-03-04T10:53:44;92779.80;;;9.83;88.92
10718;BME280;13513;42.700;23.124;2023-03-04T10:56:39;92778.61;;;9.52;90.93
10718;BME280;13513;42.700;23.124;2023-03-04T10:59:47;92779.20;;;9.59;89.83
10718;BME280;13513;42.700;23.124;2023-03-04T11:02:31;92767.27;;;9.73;89.92
10718;BME280;13513;42.700;23.124;2023-03-04T11:07:52;92766.07;;;10.24;89.72
10718;BME280;13513;42.700;23.124;2023-03-04T11:10:37;92758.44;;;10.27;90.56
10718;BME280;13513;42.700;23.124;2023-03-04T11:13:19;92757.88;;;10.49;85.45
10718;BME280;13513;42.700;23.124;2023-03-04T11:16:02;92746.88;;;10.60;85.44
10718;BME280;13513;42.700;23.124;2023-03-04T11:18:39;92742.23;;;11.01;84.45
10718;BME280;13513;42.700;23.124;2023-03-04T11:21:18;92736.97;;;11.45;79.55
10718;BME280;13513;42.700;23.124;2023-03-04T11:24:01;92735.52;;;11.66;74.84
10718;BME280;13513;42.700;23.124;2023-03-04T11:26:45;92731.48;;;11.56;74.48
10718;BME280;13513;42.700;23.124;2023-03-04T11:31:52;92726.34;;;11.37;74.57
10718;BME280;13513;42.700;23.124;2023-03-04T11:34:31;92719.09;;;10.28;81.86
10718;BME280;13513;42.700;23.124;2023-03-04T11:37:04;92712.12;;;10.17;84.71
10718;BME280;13513;42.700;23.124;2023-03-04T11:39:37;92713.20;;;10.77;82.15
10718;BME280;13513;42.700;23.124;2023-03-04T11:45:16;92708.13;;;10.70;81.24
10718;BME280;13513;42.700;23.124;2023-03-04T11:53:24;92698.41;;;10.18;86.16
10718;BME280;13513;42.700;23.124;2023-03-04T11:56:07;92692.57;;;10.42;87.34
10718;BME280;13513;42.700;23.124;2023-03-04T12:04:38;92687.15;;;10.27;86.26
10718;BME280;13513;42.700;23.124;2023-03-04T12:07:42;92682.45;;;10.08;85.47
10718;BME280;13513;42.700;23.124;2023-03-04T12:10:32;92687.44;;;9.83;88.82
10718;BME280;13513;42.700;23.124;2023-03-04T12:19:01;92676.27;;;9.52;94.67
10718;BME280;13513;42.700;23.124;2023-03-04T12:21:52;92672.76;;;9.68;90.61
10718;BME280;13513;42.700;23.124;2023-03-04T12:30:08;92666.70;;;9.27;92.81
10718;BME280;13513;42.700;23.124;2023-03-04T12:32:52;92666.47;;;9.09;95.25
10718;BME280;13513;42.700;23.124;2023-03-04T12:35:36;92666.11;;;9.20;93.20
10718;BME280;13513;42.700;23.124;2023-03-04T12:38:22;92662.63;;;9.36;93.59
10718;BME280;13513;42.700;23.124;2023-03-04T12:44:00;92658.05;;;9.50;92.22
10718;BME280;13513;42.700;23.124;2023-03-04T12:49:25;92651.48;;;9.77;88.49
10718;BME280;13513;42.700;23.124;2023-03-04T12:54:40;92648.16;;;9.86;90.87
10718;BME280;13513;42.700;23.124;2023-03-04T12:57:18;92650.69;;;10.00;90.69
10718;BME280;13513;42.700;23.124;2023-03-04T13:08:30;92631.19;;;9.77;89.18
10718;BME280;13513;42.700;23.124;2023-03-04T13:11:50;92630.29;;;9.67;91.33
10718;BME280;13513;42.700;23.124;2023-03-04T13:13:40;92621.32;;;9.68;92.34
10718;BME280;13513;42.700;23.124;2023-03-04T13:16:27;92621.25;;;9.60;92.11
10718;BME280;13513;42.700;23.124;2023-03-04T13:18:58;92621.74;;;9.57;91.62
10718;BME280;13513;42.700;23.124;2023-03-04T13:21:32;92615.22;;;9.65;90.69
10718;BME280;13513;42.700;23.124;2023-03-04T13:24:41;92616.48;;;9.60;93.10
10718;BME280;13513;42.700;23.124;2023-03-04T13:26:36;92620.08;;;9.51;95.35
10718;BME280;13513;42.700;23.124;2023-03-04T13:32:03;92618.09;;;9.39;93.77
10718;BME280;13513;42.700;23.124;2023-03-04T13:34:51;92613.80;;;9.55;93.68
10718;BME280;13513;42.700;23.124;2023-03-04T13:37:30;92605.33;;;9.53;94.85
10718;BME280;13513;42.700;23.124;2023-03-04T13:42:52;92612.97;;;9.28;93.77
10718;BME280;13513;42.700;23.124;2023-03-04T13:48:07;92605.16;;;9.16;97.63
10718;BME280;13513;42.700;23.124;2023-03-04T13:50:40;92605.35;;;9.10;95.50
10718;BME280;13513;42.700;23.124;2023-03-04T13:53:29;92605.33;;;9.07;95.45
10718;BME280;13513;42.700;23.124;2023-03-04T13:58:36;92606.31;;;9.04;96.93
10718;BME280;13513;42.700;23.124;2023-03-04T14:01:20;92596.27;;;8.98;97.87
10718;BME280;13513;42.700;23.124;2023-03-04T14:03:48;92592.31;;;8.98;99.05
10718;BME280;13513;42.700;23.124;2023-03-04T14:06:24;92587.61;;;9.03;99.26
10718;BME280;13513;42.700;23.124;2023-03-04T14:08:55;92590.20;;;9.00;99.01
10718;BME280;13513;42.700;23.124;2023-03-04T14:11:37;92588.64;;;8.80;99.42
10718;BME280;13513;42.700;23.124;2023-03-04T14:14:11;92586.88;;;8.86;99.89
10718;BME280;13513;42.700;23.124;2023-03-04T14:16:50;92583.37;;;8.80;100.00
10718;BME280;13513;42.700;23.124;2023-03-04T14:19:30;92580.32;;;8.69;100.00
10718;BME280;13513;42.700;23.124;2023-03-04T14:22:00;92571.48;;;8.78;100.00
10718;BME280;13513;42.700;23.124;2023-03-04T14:24:32;92573.17;;;8.67;100.00
10718;BME280;13513;42.700;23.124;2023-03-04T14:27:15;92574.16;;;8.61;100.00
10718;BME280;13513;42.700;23.124;2023-03-04T14:29:53;92570.14;;;8.75;100.00
10718;BME280;13513;42.700;23.124;2023-03-04T14:32:19;92570.95;;;8.78;100.00